»·PEaware :: DAL2131 MBPV-TNCM

DAL2131 :: MBPV-TNCM

FLIGHT INFORMATION

Flight Status: Arrived
Operator:
Delta Air Lines
More flights by this operator :: More flights under this callsign
Pilot: Wayne G. (10176)
Aircraft: BOEING 747-400 (NO WINGLETS)
(B74D)
More flights by this aircraft type
Origin: MBPV Providenciales Intl
Turks and Caicos Islands
Destination: TNCM Princess Juliana Intl
Netherlands Antilles
More flights between these airports :: More routes between these airports
Route: GTK R507 UTAHS RTE3 SJU RTE2 MALIE B520 STT A638 SLUGO
File this flight plan on PilotEdge
Remarks:
Altitude:
(Current/Filed)
35,000ft
Speed:
(Current/Filed)
475kts
Departed: 28-Feb-16 11:00 PM
Arrived: 29-Feb-16 12:26 AM
Distance/Time
Traveled:
563nm/1:26
Distance/Time
To Go:
Arrived

Flight Plot

Page will automatically refresh every two minutes.


Map Options




Map Legend


Flown Route
Filed Route
Departure Airport
Arrival Airport
Navaid (VOR, NDB)
Fix

Horizontal Profiles

Position Reports

Time Latitude Longitude Heading Altitude Ground
Speed
28-Feb-16 22:39 21.775112 -72.262636 178 28ft 0kts
28-Feb-16 22:40 21.775109 -72.262636 178 28ft 0kts
28-Feb-16 22:41 21.775106 -72.262636 178 28ft 0kts
28-Feb-16 22:42 21.775103 -72.262636 178 28ft 0kts
28-Feb-16 22:43 21.775100 -72.262636 178 28ft 0kts
28-Feb-16 22:44 21.775097 -72.262636 178 28ft 0kts
28-Feb-16 22:45 21.775094 -72.262636 178 28ft 0kts
28-Feb-16 22:46 21.775091 -72.262636 178 28ft 0kts
28-Feb-16 22:47 21.775088 -72.262635 178 28ft 0kts
28-Feb-16 22:48 21.775086 -72.262635 178 28ft 0kts
28-Feb-16 22:49 21.774969 -72.262632 178 28ft 4kts
28-Feb-16 22:50 21.773626 -72.265494 272 28ft 24kts
28-Feb-16 22:51 21.774224 -72.274150 273 28ft 29kts
28-Feb-16 22:52 21.774098 -72.275816 79 28ft 9kts
28-Feb-16 22:53 21.773862 -72.270593 92 28ft 85kts
28-Feb-16 22:54 21.770954 -72.219922 91 2526ft 195kts
28-Feb-16 22:55 21.759134 -72.152633 107 5663ft 255kts
28-Feb-16 22:56 21.734947 -72.075475 109 9265ft 285kts
28-Feb-16 22:57 21.707632 -71.988368 108 12006ft 335kts
28-Feb-16 22:58 21.675338 -71.885561 108 14177ft 388kts
28-Feb-16 22:59 21.638330 -71.768115 109 16520ft 436kts
28-Feb-16 23:00 21.597991 -71.640479 109 19454ft 462kts
28-Feb-16 23:01 21.555428 -71.506204 110 22400ft 485kts
28-Feb-16 23:02 21.511681 -71.365191 109 25391ft 510kts
28-Feb-16 23:03 21.465900 -71.216160 108 28330ft 539kts
28-Feb-16 23:04 21.415543 -71.060159 111 30717ft 564kts
28-Feb-16 23:05 21.356376 -70.901209 112 32602ft 576kts
28-Feb-16 23:06 21.297686 -70.740671 112 34842ft 578kts
28-Feb-16 23:07 21.239098 -70.580420 113 36855ft 578kts
28-Feb-16 23:08 21.180170 -70.419718 114 38533ft 576kts
28-Feb-16 23:09 21.121321 -70.259745 114 39135ft 576kts
28-Feb-16 23:10 21.063050 -70.099769 114 39153ft 578kts
28-Feb-16 23:11 21.004464 -69.937776 114 39141ft 590kts
28-Feb-16 23:12 20.944515 -69.772747 114 39131ft 597kts
28-Feb-16 23:13 20.861692 -69.621114 131 39134ft 596kts
28-Feb-16 23:14 20.764509 -69.476974 129 39127ft 597kts
28-Feb-16 23:15 20.669929 -69.330622 129 39125ft 597kts
28-Feb-16 23:16 20.575608 -69.184996 129 39119ft 597kts
28-Feb-16 23:17 20.480871 -69.039129 129 39100ft 597kts
28-Feb-16 23:18 20.385935 -68.893316 129 39095ft 596kts
28-Feb-16 23:19 20.291077 -68.747993 129 39092ft 596kts
28-Feb-16 23:20 20.196236 -68.603056 129 39089ft 595kts
28-Feb-16 23:21 20.101654 -68.458872 129 39086ft 594kts
28-Feb-16 23:22 20.006716 -68.314498 129 39087ft 594kts
28-Feb-16 23:23 19.911799 -68.170508 129 39084ft 593kts
28-Feb-16 23:24 19.816745 -68.026657 129 39082ft 593kts
28-Feb-16 23:25 19.721978 -67.883586 129 39075ft 593kts
28-Feb-16 23:26 19.626697 -67.740080 129 39075ft 593kts
28-Feb-16 23:27 19.531876 -67.596387 125 39075ft 597kts
28-Feb-16 23:28 19.480987 -67.427495 101 39081ft 606kts
28-Feb-16 23:29 19.444811 -67.252903 104 39083ft 605kts
28-Feb-16 23:30 19.403659 -67.080263 105 39087ft 605kts
28-Feb-16 23:31 19.362355 -66.906923 105 39085ft 605kts
28-Feb-16 23:32 19.320980 -66.733805 105 39083ft 605kts
28-Feb-16 23:33 19.279423 -66.560655 105 39081ft 605kts
28-Feb-16 23:34 19.237725 -66.387679 105 39077ft 606kts
28-Feb-16 23:35 19.195974 -66.215243 105 39073ft 606kts
28-Feb-16 23:36 19.153924 -66.042335 105 39065ft 605kts
28-Feb-16 23:37 19.111616 -65.869109 105 38758ft 603kts
28-Feb-16 23:38 19.069151 -65.696739 103 32913ft 607kts
28-Feb-16 23:39 19.025666 -65.529093 103 28399ft 566kts
28-Feb-16 23:40 18.986327 -65.373188 104 25267ft 535kts
28-Feb-16 23:41 18.955745 -65.248647 105 23021ft 514kts
28-Feb-16 23:42 18.926898 -65.130962 105 20749ft 495kts
28-Feb-16 23:43 18.926898 -65.130962 105 20749ft 495kts
28-Feb-16 23:44 18.898905 -65.017185 105 18405ft 476kts
28-Feb-16 23:45 18.866061 -64.884446 105 17844ft 467kts
28-Feb-16 23:46 18.832253 -64.748906 105 18703ft 476kts
28-Feb-16 23:47 18.799115 -64.616239 105 17101ft 470kts
28-Feb-16 23:48 18.765015 -64.480276 105 17018ft 479kts
28-Feb-16 23:49 18.731000 -64.345124 105 15969ft 471kts
28-Feb-16 23:50 18.697940 -64.214196 105 15001ft 435kts
28-Feb-16 23:51 18.661753 -64.098213 118 11535ft 391kts
28-Feb-16 23:52 18.607318 -64.008462 122 9439ft 335kts
28-Feb-16 23:53 18.559475 -63.933171 123 8172ft 283kts
28-Feb-16 23:54 18.518941 -63.869496 122 7230ft 244kts
28-Feb-16 23:55 18.479822 -63.811352 139 6975ft 245kts
28-Feb-16 23:56 18.412954 -63.805186 181 6631ft 246kts
28-Feb-16 23:57 18.344779 -63.809218 181 5560ft 243kts
28-Feb-16 23:58 18.277498 -63.813467 181 4544ft 240kts
28-Feb-16 23:59 18.211230 -63.817939 181 3564ft 237kts
29-Feb-16 00:00 18.145450 -63.822791 181 2617ft 235kts
29-Feb-16 00:01 18.080645 -63.827601 181 1741ft 230kts
29-Feb-16 00:02 18.018869 -63.831971 181 1694ft 220kts
29-Feb-16 00:03 17.960260 -63.820095 152 1721ft 217kts
29-Feb-16 00:04 17.943254 -63.766641 79 1715ft 207kts
29-Feb-16 00:05 17.951134 -63.707569 80 1652ft 197kts
29-Feb-16 00:06 17.957862 -63.654868 81 1737ft 179kts
29-Feb-16 00:07 17.965132 -63.602706 80 2005ft 184kts
29-Feb-16 00:08 17.974211 -63.550565 74 2602ft 179kts
29-Feb-16 00:09 17.985215 -63.500066 77 2531ft 162kts
29-Feb-16 00:10 17.992483 -63.454462 79 2595ft 160kts
29-Feb-16 00:11 17.998936 -63.409907 80 2587ft 154kts
29-Feb-16 00:12 18.004950 -63.367130 80 2620ft 146kts
29-Feb-16 00:13 18.010864 -63.324693 80 2593ft 146kts
29-Feb-16 00:14 18.016763 -63.282260 80 2592ft 146kts
29-Feb-16 00:15 18.022640 -63.239966 81 2258ft 145kts
29-Feb-16 00:16 18.028511 -63.197740 81 1488ft 145kts
29-Feb-16 00:17 18.034377 -63.155545 81 720ft 145kts
29-Feb-16 00:18 18.040090 -63.114222 80 14ft 123kts
29-Feb-16 00:19 18.041435 -63.104161 36 13ft 4kts
29-Feb-16 00:20 18.041642 -63.107167 262 13ft 22kts
29-Feb-16 00:21 18.042829 -63.112906 350 13ft 10kts
29-Feb-16 00:22 18.043318 -63.113005 349 13ft 0kts
29-Feb-16 00:23 18.043321 -63.113005 349 13ft 0kts
29-Feb-16 00:24 18.043322 -63.113005 349 13ft 0kts
29-Feb-16 00:25 18.043322 -63.113005 349 13ft 0kts
29-Feb-16 00:26 18.043322 -63.113005 349 13ft 0kts

Navigation Log

Ident Type
Flight plan parsing failed, navigation log unavailable